Time;durP1;ratioP1;P1;durP2;ratioP2;P2;SDS_P1;SDS_P2;PMS_P1;PMS_P2;Temp;Humidity;BMP_temperature;BMP_pressure;BME280_temperature;BME280_humidity;BME280_pressure;Samples;Min_cycle;Max_cycle;Signal;HPM_P1;HPM_P2
2023/01/14 00:01:18;;;;;;;0.95;0.50;;;5.90;83.30;;;;;;5007335;28;21422;-61
2023/01/14 00:03:44;;;;;;;4.85;0.68;;;5.90;82.60;;;;;;5008032;28;20065;-59
2023/01/14 00:06:12;;;;;;;4.22;0.73;;;5.90;82.50;;;;;;5010502;28;20148;-59
2023/01/14 00:08:38;;;;;;;1.73;0.80;;;5.90;82.60;;;;;;5006952;28;20061;-59
2023/01/14 00:11:05;;;;;;;1.63;0.60;;;5.90;82.60;;;;;;5004999;28;20117;-62
2023/01/14 00:13:36;;;;;;;1.30;0.60;;;5.90;82.60;;;;;;5011740;28;20026;-61
2023/01/14 00:16:03;;;;;;;1.63;0.50;;;5.90;82.80;;;;;;5009761;28;20032;-60
2023/01/14 00:18:32;;;;;;;0.95;0.60;;;5.90;83.00;;;;;;5008236;28;20032;-61
2023/01/14 00:21:11;;;;;;;2.83;0.73;;;5.80;83.00;;;;;;5012782;28;20041;-60
2023/01/14 00:23:37;;;;;;;2.33;0.90;;;5.80;83.40;;;;;;5012050;28;20053;-62
2023/01/14 00:26:07;;;;;;;2.15;0.57;;;5.80;83.00;;;;;;5009590;28;20088;-62
2023/01/14 00:28:33;;;;;;;2.58;0.65;;;5.80;83.00;;;;;;5011288;28;20021;-61
2023/01/14 00:31:05;;;;;;;1.38;0.52;;;5.80;83.20;;;;;;5007973;28;20049;-61
2023/01/14 00:33:31;;;;;;;2.67;0.75;;;5.80;83.50;;;;;;5009309;28;20116;-61
2023/01/14 00:35:57;;;;;;;2.60;0.60;;;5.80;83.30;;;;;;5007585;28;20038;-62
2023/01/14 00:38:22;;;;;;;2.88;0.63;;;5.80;83.50;;;;;;5013814;28;20036;-59
2023/01/14 00:40:48;;;;;;;2.65;0.60;;;5.80;83.40;;;;;;5013019;28;20034;-61
2023/01/14 00:43:13;;;;;;;4.43;0.70;;;5.80;83.60;;;;;;5015979;28;20048;-59
2023/01/14 00:45:39;;;;;;;1.90;0.75;;;5.80;83.50;;;;;;5009404;28;21487;-60
2023/01/14 00:48:04;;;;;;;4.05;0.70;;;5.80;83.50;;;;;;5012906;28;20087;-60
2023/01/14 00:50:30;;;;;;;5.32;0.88;;;5.80;83.50;;;;;;5011121;28;20438;-61
2023/01/14 00:52:56;;;;;;;4.05;1.10;;;5.80;83.70;;;;;;5012808;28;20037;-62
2023/01/14 00:55:21;;;;;;;2.35;0.55;;;5.80;83.50;;;;;;5005586;28;20459;-61
2023/01/14 00:57:47;;;;;;;3.28;0.85;;;5.80;83.70;;;;;;5004353;28;20042;-60
2023/01/14 01:00:13;;;;;;;5.97;0.80;;;5.80;83.70;;;;;;5008619;28;20315;-60
2023/01/14 01:02:38;;;;;;;1.40;0.52;;;5.80;83.70;;;;;;5012472;28;20046;-60
2023/01/14 01:05:05;;;;;;;1.90;0.80;;;5.80;83.70;;;;;;5010690;28;20052;-60
2023/01/14 01:07:30;;;;;;;5.40;0.80;;;5.80;83.80;;;;;;5008728;28;20041;-60
2023/01/14 01:09:56;;;;;;;1.52;0.70;;;5.80;83.90;;;;;;5007977;28;20556;-61
2023/01/14 01:12:21;;;;;;;2.95;0.73;;;5.80;83.70;;;;;;5010494;28;20401;-62
2023/01/14 01:14:47;;;;;;;4.90;0.73;;;5.80;83.70;;;;;;5006652;28;20038;-61
2023/01/14 01:17:13;;;;;;;2.92;0.70;;;5.80;83.70;;;;;;5008370;28;20037;-60
2023/01/14 01:19:39;;;;;;;2.58;0.80;;;5.80;83.70;;;;;;5006068;28;20039;-61
2023/01/14 01:22:04;;;;;;;1.83;0.70;;;5.90;84.60;;;;;;5011058;28;20030;-62
2023/01/14 01:24:30;;;;;;;2.20;0.60;;;5.90;83.80;;;;;;5010303;28;20063;-62
2023/01/14 01:26:57;;;;;;;3.60;0.75;;;5.90;83.90;;;;;;5005548;28;20085;-62
2023/01/14 01:29:23;;;;;;;2.28;0.75;;;5.90;84.00;;;;;;5006691;28;20034;-62
2023/01/14 01:31:48;;;;;;;2.78;0.70;;;5.90;84.10;;;;;;5006688;28;20127;-62
2023/01/14 01:34:14;;;;;;;4.50;0.70;;;5.90;84.20;;;;;;5010367;28;20064;-61
2023/01/14 01:36:39;;;;;;;5.40;0.73;;;5.90;84.40;;;;;;5011432;28;20122;-60
2023/01/14 01:39:05;;;;;;;2.13;0.60;;;6.00;84.50;;;;;;5004826;28;20030;-61
2023/01/14 01:41:32;;;;;;;1.42;0.63;;;6.00;84.60;;;;;;5008732;28;20066;-61
2023/01/14 01:44:03;;;;;;;2.85;0.57;;;6.10;84.60;;;;;;5010505;28;20091;-61
2023/01/14 01:46:30;;;;;;;2.55;0.90;;;6.10;84.70;;;;;;5010361;28;20269;-60
2023/01/14 01:49:04;;;;;;;3.05;1.00;;;6.10;84.60;;;;;;5009165;28;20034;-60
2023/01/14 01:51:35;;;;;;;2.67;0.70;;;6.20;84.70;;;;;;5004589;28;20038;-61
2023/01/14 01:54:02;;;;;;;2.88;0.75;;;6.20;84.70;;;;;;5005900;28;20041;-59
2023/01/14 01:56:33;;;;;;;1.45;0.60;;;6.30;84.60;;;;;;5011226;28;20034;-60
2023/01/14 01:59:02;;;;;;;2.30;0.80;;;6.30;84.60;;;;;;5010859;28;20062;-59
2023/01/14 02:01:28;;;;;;;7.70;0.90;;;6.30;84.60;;;;;;5020453;28;20034;-62
2023/01/14 02:03:53;;;;;;;3.72;0.80;;;6.30;84.50;;;;;;5017390;28;20056;-61
2023/01/14 02:06:19;;;;;;;3.20;0.82;;;6.40;84.70;;;;;;5018548;28;20107;-61
2023/01/14 02:08:48;;;;;;;4.68;1.27;;;6.40;84.90;;;;;;5016034;28;20175;-62
2023/01/14 02:11:45;;;;;;;3.17;1.00;;;6.40;85.20;;;;;;5014921;28;20033;-61
2023/01/14 02:14:18;;;;;;;3.50;0.93;;;6.50;86.00;;;;;;5015445;28;20139;-60
2023/01/14 02:16:55;;;;;;;2.17;0.80;;;6.40;85.40;;;;;;5014148;28;20029;-62
2023/01/14 02:20:02;;;;;;;5.68;1.00;;;6.40;85.60;;;;;;5009466;28;20053;-61
2023/01/14 02:22:46;;;;;;;3.17;1.02;;;6.40;86.30;;;;;;5011575;28;20026;-61
2023/01/14 02:25:31;;;;;;;2.95;1.00;;;6.50;86.10;;;;;;5011997;28;20160;-61
2023/01/14 02:28:34;;;;;;;1.80;0.77;;;6.50;86.10;;;;;;5011982;28;20057;-60
2023/01/14 02:31:15;;;;;;;2.40;0.90;;;6.50;86.00;;;;;;5008254;28;20288;-60
2023/01/14 02:33:43;;;;;;;2.28;0.82;;;6.50;86.00;;;;;;5013126;28;20516;-62
2023/01/14 02:36:44;;;;;;;4.50;0.70;;;6.60;85.60;;;;;;5011008;28;20480;-62
2023/01/14 02:39:25;;;;;;;5.32;0.70;;;6.50;86.40;;;;;;5011713;28;20050;-63
2023/01/14 02:45:40;;;;;;;3.90;0.55;;;6.60;87.00;;;;;;4996542;28;20100;-60
2023/01/14 02:48:07;;;;;;;2.47;0.73;;;6.50;86.00;;;;;;4995062;28;20113;-62
2023/01/14 02:50:35;;;;;;;4.03;0.68;;;6.50;85.30;;;;;;5008381;28;20333;-62
2023/01/14 02:53:07;;;;;;;3.20;0.70;;;6.50;85.10;;;;;;5013020;28;20536;-62
2023/01/14 02:55:35;;;;;;;5.20;0.90;;;6.40;85.30;;;;;;5013075;28;20064;-64
2023/01/14 02:58:22;;;;;;;2.90;0.80;;;6.40;85.20;;;;;;5020582;28;20057;-62
2023/01/14 03:01:25;;;;;;;2.92;0.47;;;6.40;85.60;;;;;;5008990;28;20219;-63
2023/01/14 03:04:12;;;;;;;2.05;0.45;;;6.40;85.60;;;;;;5015589;28;20037;-62
2023/01/14 03:07:02;;;;;;;1.58;0.30;;;6.40;85.60;;;;;;5011148;28;20033;-62
2023/01/14 03:09:46;;;;;;;2.42;0.50;;;6.40;86.10;;;;;;5012358;28;20034;-62
2023/01/14 03:12:43;;;;;;;1.73;0.40;;;6.30;84.90;;;;;;5009121;28;20042;-62
2023/01/14 03:15:37;;;;;;;4.25;0.73;;;6.40;85.40;;;;;;5007359;28;20044;-62
2023/01/14 03:18:22;;;;;;;3.47;0.60;;;6.40;85.30;;;;;;5013237;28;20060;-62
2023/01/14 03:20:58;;;;;;;2.97;0.70;;;6.40;85.40;;;;;;5011700;28;20682;-62
2023/01/14 03:23:25;;;;;;;5.30;0.60;;;6.40;85.10;;;;;;5009921;28;20124;-62
2023/01/14 03:25:53;;;;;;;1.35;0.30;;;6.40;85.10;;;;;;5012638;28;20527;-63
2023/01/14 03:28:25;;;;;;;2.25;0.32;;;6.40;85.00;;;;;;5009354;28;20568;-63
2023/01/14 03:31:02;;;;;;;2.08;0.30;;;6.40;85.40;;;;;;5011093;28;20038;-61
2023/01/14 03:33:33;;;;;;;3.28;0.40;;;6.40;85.60;;;;;;5009092;28;20377;-62
2023/01/14 03:36:01;;;;;;;1.42;0.32;;;6.40;85.60;;;;;;5015936;28;20768;-62
2023/01/14 03:38:39;;;;;;;1.52;0.35;;;6.40;85.40;;;;;;5007575;28;20513;-62
2023/01/14 03:41:08;;;;;;;1.40;0.43;;;6.50;85.80;;;;;;5013166;28;20490;-62
2023/01/14 03:43:48;;;;;;;1.63;0.40;;;6.50;85.40;;;;;;5010213;28;20030;-63
2023/01/14 03:46:14;;;;;;;0.77;0.30;;;6.60;85.60;;;;;;5011010;28;20445;-62
2023/01/14 03:48:40;;;;;;;1.92;0.38;;;6.60;85.30;;;;;;5013060;28;20029;-63
2023/01/14 03:51:24;;;;;;;3.88;0.50;;;6.60;85.10;;;;;;5010503;28;20321;-61
2023/01/14 03:54:18;;;;;;;3.20;0.63;;;6.60;85.10;;;;;;5008410;28;20068;-60
2023/01/14 03:56:51;;;;;;;1.88;0.65;;;6.60;85.30;;;;;;5010830;28;20041;-62
2023/01/14 03:59:33;;;;;;;2.58;0.52;;;6.60;84.70;;;;;;5012424;28;20053;-61
2023/01/14 04:02:03;;;;;;;1.42;0.55;;;6.60;84.90;;;;;;5008611;28;20036;-60
2023/01/14 04:04:31;;;;;;;5.32;0.80;;;6.60;84.40;;;;;;5010611;28;20037;-58
2023/01/14 04:06:57;;;;;;;3.58;0.80;;;6.60;84.30;;;;;;5007283;28;20298;-61
2023/01/14 04:09:22;;;;;;;4.00;0.90;;;6.50;84.20;;;;;;5009712;28;20217;-62
2023/01/14 04:11:48;;;;;;;2.50;0.75;;;6.50;84.20;;;;;;5006170;28;20136;-61
2023/01/14 04:16:58;;;;;;;5.70;0.90;;;6.40;84.20;;;;;;5006277;28;20056;-60
2023/01/14 04:19:23;;;;;;;4.15;0.93;;;6.40;84.60;;;;;;5009933;28;20128;-59
2023/01/14 04:21:49;;;;;;;3.60;0.90;;;6.30;84.40;;;;;;5008053;28;20058;-62
2023/01/14 04:24:14;;;;;;;3.13;1.15;;;6.30;84.40;;;;;;5009007;28;20084;-61
2023/01/14 04:26:40;;;;;;;2.47;0.85;;;6.30;84.50;;;;;;5005875;28;20104;-60
2023/01/14 04:29:05;;;;;;;3.60;1.00;;;6.30;84.70;;;;;;5008705;28;20038;-61
2023/01/14 04:31:31;;;;;;;5.20;1.10;;;6.20;84.70;;;;;;5008673;28;20501;-62
2023/01/14 04:33:56;;;;;;;3.55;0.90;;;6.20;84.70;;;;;;5010582;28;20037;-62
2023/01/14 04:36:22;;;;;;;2.10;0.88;;;6.20;84.70;;;;;;5012369;28;20155;-60
2023/01/14 04:38:47;;;;;;;6.72;1.13;;;6.20;84.70;;;;;;5006373;28;20528;-60
2023/01/14 04:43:59;;;;;;;8.85;1.33;;;6.10;84.80;;;;;;5008033;28;20123;-62
2023/01/14 04:46:25;;;;;;;4.95;1.65;;;6.10;84.70;;;;;;5009317;28;21824;-61
2023/01/14 04:48:50;;;;;;;7.38;1.42;;;6.10;84.90;;;;;;5009689;28;20517;-60
2023/01/14 04:51:16;;;;;;;5.25;1.13;;;6.00;84.90;;;;;;5011356;28;20066;-61
2023/01/14 04:53:41;;;;;;;5.15;1.02;;;6.10;84.90;;;;;;5010770;28;20111;-61
2023/01/14 04:56:07;;;;;;;6.03;1.17;;;6.00;84.90;;;;;;5006153;28;20390;-61
2023/01/14 04:58:33;;;;;;;4.40;1.05;;;6.00;84.90;;;;;;5008514;28;20402;-60
2023/01/14 05:01:00;;;;;;;3.42;1.10;;;6.00;84.90;;;;;;5010078;28;20033;-59
2023/01/14 05:03:25;;;;;;;4.97;1.30;;;6.00;85.10;;;;;;5009342;28;20052;-61
2023/01/14 05:05:51;;;;;;;5.05;0.90;;;6.00;85.00;;;;;;5011443;28;20034;-62
2023/01/14 05:08:17;;;;;;;3.70;0.85;;;6.00;84.90;;;;;;5011379;28;20037;-62
2023/01/14 05:10:43;;;;;;;4.50;1.00;;;6.00;85.10;;;;;;5010485;28;20072;-62
2023/01/14 05:13:09;;;;;;;4.43;1.08;;;5.90;85.00;;;;;;5008247;28;20041;-60
2023/01/14 05:15:38;;;;;;;5.45;0.80;;;5.90;85.00;;;;;;5006807;28;20029;-62
2023/01/14 05:18:04;;;;;;;7.05;1.00;;;5.90;84.90;;;;;;5012902;28;20179;-61
2023/01/14 05:20:30;;;;;;;6.80;1.20;;;5.90;84.90;;;;;;5009670;28;20042;-61
2023/01/14 05:23:01;;;;;;;6.55;1.35;;;5.90;84.90;;;;;;5011669;28;20053;-60
2023/01/14 05:25:28;;;;;;;9.20;1.38;;;5.90;85.10;;;;;;5008448;28;20516;-60
2023/01/14 05:27:59;;;;;;;7.75;1.40;;;5.90;85.10;;;;;;5009971;28;20064;-61
2023/01/14 05:30:25;;;;;;;6.63;1.20;;;5.90;85.30;;;;;;5003717;28;20037;-61
2023/01/14 05:32:50;;;;;;;4.18;1.33;;;5.90;85.20;;;;;;5011425;28;20040;-61
2023/01/14 05:35:17;;;;;;;4.97;1.08;;;5.90;85.10;;;;;;5009055;28;20306;-61
2023/01/14 05:37:43;;;;;;;6.90;1.00;;;5.90;85.10;;;;;;5009895;28;20034;-61
2023/01/14 05:40:09;;;;;;;7.85;0.98;;;5.90;85.10;;;;;;5008269;28;20041;-61
2023/01/14 05:48:04;;;;;;;9.95;1.38;;;5.80;84.90;;;;;;5007611;28;20331;-60
2023/01/14 05:50:30;;;;;;;6.95;1.00;;;5.80;84.90;;;;;;5009184;28;20105;-61
2023/01/14 05:52:56;;;;;;;4.65;1.10;;;5.80;85.00;;;;;;5012131;28;20527;-62
2023/01/14 05:55:22;;;;;;;5.63;1.58;;;5.80;85.10;;;;;;5008123;28;20419;-60
2023/01/14 05:57:47;;;;;;;7.28;1.85;;;5.80;85.20;;;;;;5006200;28;20037;-59
2023/01/14 06:06:20;;;;;;;5.97;1.60;;;5.80;85.10;;;;;;5008638;28;20087;-61
2023/01/14 06:08:28;;;;;;;4.43;1.83;;;5.80;84.80;;;;;;5012805;28;20275;-61
2023/01/14 06:10:54;;;;;;;5.88;1.30;;;5.90;84.80;;;;;;5013345;28;20034;-62
2023/01/14 06:13:23;;;;;;;8.35;1.20;;;5.90;84.70;;;;;;5014150;28;20493;-62
2023/01/14 06:15:51;;;;;;;6.32;1.40;;;5.90;84.70;;;;;;5008408;28;20037;-62
2023/01/14 06:18:21;;;;;;;6.85;1.35;;;5.90;84.90;;;;;;5007988;28;20153;-61
2023/01/14 06:20:51;;;;;;;6.68;1.40;;;5.80;84.80;;;;;;5012020;28;20050;-62
2023/01/14 06:23:18;;;;;;;4.70;1.60;;;5.90;84.90;;;;;;5010029;28;20041;-60
2023/01/14 06:25:45;;;;;;;5.05;1.30;;;5.90;84.90;;;;;;5008750;28;20465;-61
2023/01/14 06:28:11;;;;;;;9.00;2.20;;;5.80;84.90;;;;;;5011188;28;20045;-61
2023/01/14 06:30:37;;;;;;;6.70;3.20;;;5.90;84.90;;;;;;5003581;28;20034;-61
2023/01/14 06:33:03;;;;;;;7.10;1.73;;;5.90;85.00;;;;;;5006315;28;20046;-61
2023/01/14 06:35:28;;;;;;;6.75;1.35;;;5.80;84.90;;;;;;5004134;28;20034;-60
2023/01/14 06:37:54;;;;;;;5.93;1.55;;;5.80;85.10;;;;;;5004826;28;20089;-63
2023/01/14 06:40:19;;;;;;;5.63;1.30;;;5.90;85.30;;;;;;5011016;28;20053;-61
2023/01/14 06:42:45;;;;;;;6.20;1.25;;;5.80;85.40;;;;;;5006808;28;21508;-62
2023/01/14 06:45:11;;;;;;;5.13;2.10;;;5.80;85.40;;;;;;5010520;28;20038;-61
2023/01/14 06:47:38;;;;;;;5.72;1.27;;;5.90;85.60;;;;;;5016619;28;20484;-62
2023/01/14 06:50:05;;;;;;;12.63;2.20;;;5.90;85.70;;;;;;5009781;28;20449;-62
2023/01/14 06:52:30;;;;;;;4.85;1.65;;;5.90;85.80;;;;;;5012541;28;20119;-62
2023/01/14 06:54:58;;;;;;;8.68;1.70;;;6.00;85.90;;;;;;5013757;28;20042;-61
2023/01/14 06:57:24;;;;;;;4.13;1.50;;;6.00;86.00;;;;;;5009859;28;20061;-61
2023/01/14 06:59:50;;;;;;;8.23;4.03;;;6.00;86.00;;;;;;5010116;28;20088;-61
2023/01/14 07:02:15;;;;;;;9.25;4.60;;;6.10;86.00;;;;;;5009410;28;20259;-61
2023/01/14 07:04:43;;;;;;;10.43;3.10;;;6.10;85.80;;;;;;5010589;28;20393;-61
2023/01/14 07:07:09;;;;;;;8.88;2.40;;;6.10;85.70;;;;;;5009017;28;20132;-62
2023/01/14 07:09:34;;;;;;;6.25;1.80;;;6.10;85.80;;;;;;5011601;28;20037;-61
2023/01/14 07:12:00;;;;;;;7.38;2.00;;;6.10;85.90;;;;;;5010602;28;20090;-61
2023/01/14 07:14:25;;;;;;;8.57;1.35;;;6.10;85.90;;;;;;5010483;28;20041;-60
2023/01/14 07:16:51;;;;;;;7.03;1.50;;;6.20;86.00;;;;;;5008587;28;20039;-61
2023/01/14 07:19:17;;;;;;;5.88;1.55;;;6.20;85.90;;;;;;5006948;28;20034;-62
2023/01/14 07:21:42;;;;;;;6.90;1.42;;;6.20;85.90;;;;;;5009689;28;20117;-61
2023/01/14 07:24:08;;;;;;;5.45;1.40;;;6.30;86.00;;;;;;5007826;28;20038;-62
2023/01/14 07:26:33;;;;;;;5.55;1.30;;;6.30;85.90;;;;;;5010382;28;20067;-61
2023/01/14 07:28:59;;;;;;;6.03;1.15;;;6.30;85.80;;;;;;5006439;28;20034;-60
2023/01/14 07:31:25;;;;;;;6.75;1.83;;;6.40;85.80;;;;;;4995697;28;20041;-61
2023/01/14 07:33:50;;;;;;;9.20;1.45;;;6.40;85.80;;;;;;4997268;28;20222;-61
2023/01/14 07:36:16;;;;;;;5.97;1.67;;;6.40;85.80;;;;;;4999005;28;20563;-61
2023/01/14 07:38:41;;;;;;;5.38;1.60;;;6.40;85.80;;;;;;5006255;28;20770;-60
2023/01/14 07:41:18;;;;;;;7.22;1.70;;;6.50;86.00;;;;;;5004128;28;20044;-60
2023/01/14 07:43:47;;;;;;;5.70;1.73;;;6.50;86.10;;;;;;5000917;28;20061;-60
2023/01/14 07:46:14;;;;;;;6.57;1.30;;;6.60;86.00;;;;;;5002175;28;20034;-60
2023/01/14 07:48:40;;;;;;;6.88;1.40;;;6.60;85.80;;;;;;5004356;28;20714;-60
2023/01/14 07:51:08;;;;;;;4.32;1.20;;;6.60;85.80;;;;;;5001267;28;20191;-58
2023/01/14 07:53:34;;;;;;;5.07;1.02;;;6.70;85.90;;;;;;5003716;28;20060;-59
2023/01/14 07:56:01;;;;;;;8.77;1.25;;;6.60;85.80;;;;;;5005771;28;20034;-59
2023/01/14 07:58:27;;;;;;;6.22;1.77;;;6.70;85.90;;;;;;5005484;28;20034;-57
2023/01/14 08:00:55;;;;;;;6.43;1.48;;;6.70;85.90;;;;;;5005239;28;20108;-59
2023/01/14 08:03:22;;;;;;;6.47;1.63;;;6.70;85.80;;;;;;5003427;28;20272;-59
2023/01/14 08:05:48;;;;;;;8.20;1.70;;;6.70;85.70;;;;;;5004566;28;20158;-60
2023/01/14 08:08:14;;;;;;;7.82;1.63;;;6.80;85.70;;;;;;5006126;28;20044;-60
2023/01/14 08:10:40;;;;;;;6.40;1.40;;;6.80;85.50;;;;;;5002436;28;20038;-59
2023/01/14 08:13:05;;;;;;;5.72;1.30;;;6.80;85.40;;;;;;5007976;28;20029;-60
2023/01/14 08:15:31;;;;;;;5.63;1.10;;;6.80;85.30;;;;;;5011068;28;20068;-60
2023/01/14 08:17:57;;;;;;;5.40;1.17;;;6.80;85.10;;;;;;5011529;28;20378;-60
2023/01/14 08:20:23;;;;;;;6.82;2.08;;;6.90;85.00;;;;;;5009445;28;20053;-61
2023/01/14 08:22:59;;;;;;;7.05;1.45;;;6.90;84.90;;;;;;5007728;28;20124;-60
2023/01/14 08:25:26;;;;;;;5.70;1.58;;;6.90;84.80;;;;;;5013528;28;20029;-60
2023/01/14 08:27:51;;;;;;;4.07;1.10;;;6.80;84.60;;;;;;5006838;28;20778;-60
2023/01/14 08:30:17;;;;;;;2.38;0.80;;;6.80;84.60;;;;;;5009044;28;20437;-58
2023/01/14 08:32:43;;;;;;;4.63;1.02;;;6.80;84.50;;;;;;5006633;28;20168;-59
2023/01/14 08:35:09;;;;;;;3.35;1.00;;;6.90;84.60;;;;;;5006398;28;20058;-60
2023/01/14 08:37:35;;;;;;;6.03;1.20;;;6.80;84.60;;;;;;5007210;28;20505;-58
2023/01/14 08:40:01;;;;;;;4.63;1.30;;;6.80;84.60;;;;;;5007098;28;20084;-58
2023/01/14 08:42:27;;;;;;;4.80;1.27;;;6.80;84.70;;;;;;5011067;28;20833;-59
2023/01/14 08:44:52;;;;;;;4.60;1.25;;;6.80;84.70;;;;;;5008564;28;20040;-60
2023/01/14 08:47:18;;;;;;;4.82;1.10;;;6.90;84.70;;;;;;5004609;28;20030;-61
2023/01/14 08:49:43;;;;;;;5.05;1.08;;;6.90;84.60;;;;;;5004250;28;20042;-59
2023/01/14 08:52:09;;;;;;;4.55;1.38;;;6.90;84.60;;;;;;5008451;28;20595;-60
2023/01/14 08:54:34;;;;;;;1.88;1.05;;;6.90;84.60;;;;;;5010304;28;20060;-58
2023/01/14 08:57:00;;;;;;;4.18;1.20;;;6.90;84.50;;;;;;5009185;28;20042;-60
2023/01/14 08:59:26;;;;;;;5.07;1.20;;;6.90;84.50;;;;;;5006565;28;20049;-60
2023/01/14 09:01:52;;;;;;;3.67;1.33;;;6.90;84.40;;;;;;5008674;28;20026;-60
2023/01/14 09:04:17;;;;;;;2.58;0.75;;;6.90;84.30;;;;;;5001491;28;20041;-59
2023/01/14 09:17:43;;;;;;;2.20;1.05;;;7.10;84.40;;;;;;5007962;28;20582;-60
2023/01/14 09:20:11;;;;;;;4.30;1.48;;;7.10;84.40;;;;;;5003706;28;20037;-59
2023/01/14 09:22:38;;;;;;;5.88;1.77;;;7.20;84.40;;;;;;5004837;28;20674;-59
2023/01/14 09:25:04;;;;;;;4.68;1.30;;;7.20;84.30;;;;;;5007763;28;20083;-60
2023/01/14 09:27:31;;;;;;;3.10;0.95;;;7.20;84.20;;;;;;5005769;28;20054;-60
2023/01/14 09:29:57;;;;;;;5.50;1.23;;;7.30;84.30;;;;;;5008290;28;20037;-59
2023/01/14 09:32:23;;;;;;;3.38;1.88;;;7.30;84.10;;;;;;5006355;28;20099;-60
2023/01/14 09:34:50;;;;;;;6.45;1.55;;;7.40;84.30;;;;;;5002759;28;20042;-59
2023/01/14 09:37:23;;;;;;;6.40;1.80;;;7.40;84.00;;;;;;5010895;28;20042;-60
2023/01/14 09:39:50;;;;;;;4.75;1.10;;;7.50;83.70;;;;;;5008473;28;20126;-59
2023/01/14 09:42:26;;;;;;;3.22;1.30;;;7.50;84.10;;;;;;5008063;28;20069;-59
2023/01/14 09:45:13;;;;;;;4.03;1.50;;;7.50;83.40;;;;;;5006213;28;20060;-61
2023/01/14 09:47:40;;;;;;;4.65;1.40;;;7.50;83.30;;;;;;5004667;28;20038;-61
2023/01/14 09:50:13;;;;;;;2.85;1.10;;;7.60;83.30;;;;;;5008676;28;20936;-61
2023/01/14 09:53:03;;;;;;;5.63;1.98;;;7.60;83.30;;;;;;5010660;28;20038;-61
2023/01/14 09:56:05;;;;;;;6.25;2.55;;;7.60;83.00;;;;;;5002339;28;20051;-60
2023/01/14 09:58:37;;;;;;;4.28;2.53;;;7.70;83.60;;;;;;5002515;28;20052;-60
2023/01/14 10:01:13;;;;;;;5.57;1.90;;;7.70;83.00;;;;;;5009595;28;20145;-59
2023/01/14 10:03:54;;;;;;;6.45;3.28;;;7.70;82.90;;;;;;5006748;28;20045;-61
2023/01/14 10:06:20;;;;;;;4.63;1.52;;;7.70;82.80;;;;;;5009240;28;20263;-59
2023/01/14 10:08:57;;;;;;;3.55;1.98;;;7.80;82.70;;;;;;5010957;28;20136;-61
2023/01/14 10:11:23;;;;;;;5.10;1.60;;;7.80;82.60;;;;;;5006454;28;20072;-60
2023/01/14 10:14:00;;;;;;;4.32;2.15;;;7.80;82.70;;;;;;5008260;28;20095;-60
2023/01/14 10:16:31;;;;;;;1.88;1.23;;;7.90;82.50;;;;;;5015908;28;20044;-61
2023/01/14 10:19:19;;;;;;;2.95;1.08;;;7.90;82.50;;;;;;5016857;28;20037;-60
2023/01/14 10:21:56;;;;;;;1.95;1.20;;;7.90;82.40;;;;;;5019622;28;20531;-59
2023/01/14 10:24:22;;;;;;;3.60;1.20;;;8.00;82.40;;;;;;5015359;28;20038;-59
2023/01/14 10:26:50;;;;;;;3.15;1.30;;;8.00;82.40;;;;;;5018684;28;20489;-60
2023/01/14 10:29:21;;;;;;;2.85;1.40;;;8.00;82.10;;;;;;5015078;28;20529;-60
2023/01/14 10:31:59;;;;;;;2.28;1.42;;;8.00;81.90;;;;;;5013484;28;20083;-59
2023/01/14 10:34:29;;;;;;;4.82;1.40;;;8.10;81.80;;;;;;5015431;28;20042;-59
2023/01/14 10:36:54;;;;;;;3.22;1.40;;;8.10;82.00;;;;;;5013688;28;20072;-61
2023/01/14 10:39:20;;;;;;;2.03;1.10;;;8.20;82.00;;;;;;5002680;28;20577;-59
2023/01/14 10:41:49;;;;;;;2.63;1.20;;;8.30;82.00;;;;;;5015022;28;20051;-60
2023/01/14 10:44:27;;;;;;;2.00;0.93;;;8.30;81.60;;;;;;5015176;28;20030;-60
2023/01/14 10:47:12;;;;;;;2.42;0.82;;;8.40;81.10;;;;;;5011560;28;20041;-57
2023/01/14 10:49:41;;;;;;;;;;;8.40;81.10;;;;;;5015282;28;20040;-59
2023/01/14 10:52:25;;;;;;;2.33;0.70;;;8.50;81.20;;;;;;5016281;28;19924;-59
2023/01/14 10:55:14;;;;;;;2.17;0.68;;;8.60;80.50;;;;;;5012462;28;20401;-60
2023/01/14 10:57:58;;;;;;;1.90;0.80;;;8.60;80.00;;;;;;5018430;28;20038;-60
2023/01/14 11:00:38;;;;;;;1.08;0.68;;;8.70;79.80;;;;;;5012775;28;20072;-60
2023/01/14 11:03:09;;;;;;;1.27;0.80;;;8.70;79.60;;;;;;5015474;28;20425;-59
2023/01/14 11:05:38;;;;;;;2.97;0.73;;;8.70;79.50;;;;;;5014340;28;20033;-61
2023/01/14 11:08:25;;;;;;;2.05;0.85;;;8.80;79.10;;;;;;5019614;28;20397;-60
2023/01/14 11:11:22;;;;;;;1.75;0.80;;;8.80;78.30;;;;;;5018412;28;20080;-59
2023/01/14 11:13:50;;;;;;;1.35;0.75;;;8.80;77.70;;;;;;5015279;28;20505;-58
2023/01/14 11:16:25;;;;;;;3.47;1.10;;;8.80;78.50;;;;;;5014994;28;20044;-58
2023/01/14 11:18:59;;;;;;;1.20;0.70;;;8.90;78.00;;;;;;5014794;28;20030;-59
2023/01/14 11:21:27;;;;;;;2.95;1.27;;;8.90;78.00;;;;;;5015649;28;20049;-59
2023/01/14 11:24:00;;;;;;;2.65;1.30;;;9.00;78.20;;;;;;5013572;28;20062;-58
2023/01/14 11:26:33;;;;;;;2.88;1.30;;;9.00;78.20;;;;;;5016402;28;20333;-58
2023/01/14 11:29:21;;;;;;;1.52;0.82;;;9.00;78.20;;;;;;5016499;28;20064;-58
2023/01/14 11:31:50;;;;;;;1.38;0.85;;;9.10;77.40;;;;;;5016361;28;20112;-59
2023/01/14 11:34:38;;;;;;;2.67;1.30;;;9.10;77.90;;;;;;5014550;28;20030;-60
2023/01/14 11:37:09;;;;;;;0.90;0.57;;;9.20;77.40;;;;;;5014969;28;20042;-59
2023/01/14 11:39:40;;;;;;;1.63;0.70;;;9.20;77.70;;;;;;5015013;28;20033;-59
2023/01/14 11:42:32;;;;;;;1.30;0.60;;;9.20;77.80;;;;;;5014791;28;20043;-59
2023/01/14 11:45:00;;;;;;;1.05;0.60;;;9.30;77.20;;;;;;5013784;28;20105;-58
2023/01/14 11:47:29;;;;;;;1.42;0.73;;;9.30;77.50;;;;;;5016466;28;20041;-59
2023/01/14 11:50:13;;;;;;;2.05;1.23;;;9.40;77.30;;;;;;5014936;28;20077;-59
2023/01/14 11:52:39;;;;;;;2.75;1.40;;;9.40;76.80;;;;;;5012051;28;20119;-59
2023/01/14 11:55:13;;;;;;;2.15;1.15;;;9.50;77.20;;;;;;5006493;28;20045;-59
2023/01/14 11:57:39;;;;;;;2.38;1.55;;;9.50;76.80;;;;;;5017808;28;20536;-59
2023/01/14 12:00:08;;;;;;;3.35;2.00;;;9.60;77.20;;;;;;5015715;28;20506;-59
2023/01/14 12:02:44;;;;;;;2.75;1.50;;;9.60;76.90;;;;;;5012978;28;20033;-59
2023/01/14 12:05:21;;;;;;;2.45;1.25;;;9.60;76.50;;;;;;5015990;28;20052;-61
2023/01/14 12:07:54;;;;;;;1.13;0.70;;;9.70;76.60;;;;;;5015444;28;20125;-59
2023/01/14 12:10:28;;;;;;;1.70;0.80;;;9.70;76.40;;;;;;5015118;28;20076;-60
2023/01/14 12:18:56;;;;;;;2.28;1.00;;;9.80;75.40;;;;;;5014528;28;20044;-58
2023/01/14 12:21:30;;;;;;;3.55;0.90;;;9.80;75.80;;;;;;5016583;28;20038;-61
2023/01/14 12:24:11;;;;;;;4.00;1.08;;;9.80;75.80;;;;;;5016199;28;20064;-60
2023/01/14 12:26:41;;;;;;;3.20;1.05;;;9.80;75.80;;;;;;5016972;28;20037;-60
2023/01/14 12:29:14;;;;;;;3.05;1.00;;;9.80;76.00;;;;;;5015964;28;20038;-60
2023/01/14 12:31:52;;;;;;;2.38;1.15;;;9.80;76.60;;;;;;5015638;28;20040;-57
2023/01/14 12:34:37;;;;;;;2.67;1.10;;;9.90;75.40;;;;;;5013506;28;20091;-60
2023/01/14 12:37:10;;;;;;;3.33;1.40;;;9.90;75.70;;;;;;5014274;28;20048;-59
2023/01/14 12:45:44;;;;;;;1.65;1.20;;;9.90;75.40;;;;;;5015253;28;20041;-59
2023/01/14 12:48:11;;;;;;;;;;;9.90;75.50;;;;;;5014894;28;20025;-60
2023/01/14 12:50:53;;;;;;;1.60;1.17;;;9.90;75.50;;;;;;5015881;28;19921;-60
2023/01/14 12:53:32;;;;;;;2.08;1.27;;;9.90;75.60;;;;;;5013771;28;20046;-60
2023/01/14 12:56:00;;;;;;;1.33;1.23;;;9.90;75.40;;;;;;5002498;28;20045;-61
2023/01/14 12:58:31;;;;;;;3.65;1.13;;;9.90;75.40;;;;;;5005667;28;20121;-59
2023/01/14 13:01:03;;;;;;;2.72;1.10;;;9.90;75.30;;;;;;5016986;28;20045;-60
2023/01/14 13:04:00;;;;;;;2.50;1.38;;;9.90;75.20;;;;;;5016612;28;20033;-60
2023/01/14 13:06:33;;;;;;;3.00;1.70;;;9.90;74.90;;;;;;5016145;28;20083;-60
2023/01/14 13:09:01;;;;;;;4.53;2.25;;;9.90;75.00;;;;;;5008709;28;20071;-61
2023/01/14 13:11:36;;;;;;;2.63;1.85;;;9.90;75.10;;;;;;5006892;28;20411;-59
2023/01/14 13:14:03;;;;;;;1.85;1.55;;;9.90;74.90;;;;;;5010945;28;20033;-60
2023/01/14 13:16:41;;;;;;;1.77;1.45;;;9.80;75.00;;;;;;5016189;28;20450;-61
2023/01/14 13:19:25;;;;;;;5.18;2.85;;;9.80;74.60;;;;;;5008024;28;20253;-60
2023/01/14 13:22:02;;;;;;;2.13;1.40;;;9.80;74.70;;;;;;5006558;28;20068;-61
2023/01/14 13:24:47;;;;;;;3.47;1.90;;;9.80;74.70;;;;;;5012509;28;20409;-60
2023/01/14 13:27:30;;;;;;;;;;;9.80;74.70;;;;;;5014516;28;21200;-56
2023/01/14 13:30:17;;;;;;;2.33;1.17;;;9.90;75.10;;;;;;5011339;28;20343;-60
2023/01/14 13:33:06;;;;;;;1.88;1.00;;;9.90;74.80;;;;;;5004216;28;20037;-62
2023/01/14 13:35:33;;;;;;;2.17;1.20;;;9.80;74.40;;;;;;5005412;28;20287;-61
2023/01/14 13:38:01;;;;;;;1.48;0.90;;;9.80;74.70;;;;;;5004124;28;20041;-60
2023/01/14 13:40:33;;;;;;;7.15;4.72;;;9.80;74.60;;;;;;5007279;28;20037;-61
2023/01/14 13:43:03;;;;;;;3.08;1.55;;;9.80;74.40;;;;;;5009638;28;20034;-60
2023/01/14 13:45:30;;;;;;;2.60;1.02;;;9.80;74.30;;;;;;5013659;28;20390;-61
2023/01/14 13:47:59;;;;;;;2.47;0.80;;;9.80;74.20;;;;;;5008764;28;20053;-61
2023/01/14 13:50:32;;;;;;;2.13;0.90;;;9.80;73.50;;;;;;5007731;28;20034;-62
2023/01/14 13:53:21;;;;;;;2.75;1.40;;;9.90;73.20;;;;;;5011361;28;20056;-61
2023/01/14 13:55:54;;;;;;;1.23;0.80;;;9.90;72.80;;;;;;5014718;28;20056;-62
2023/01/14 13:58:46;;;;;;;1.70;0.52;;;9.90;72.60;;;;;;5012815;28;20078;-61
2023/01/14 14:01:18;;;;;;;1.17;0.95;;;9.90;71.80;;;;;;5020941;28;20061;-59